sensor_id;sensor_type;location;lat;lon;timestamp;P1;durP1;ratioP1;P2;durP2;ratioP2
38779;SDS011;29273;49.962;9.768;2023-05-07T00:01:42;1.20;;;1.00;;
38779;SDS011;29273;49.962;9.768;2023-05-07T00:04:07;1.45;;;0.82;;
38779;SDS011;29273;49.962;9.768;2023-05-07T00:06:33;1.35;;;1.08;;
38779;SDS011;29273;49.962;9.768;2023-05-07T00:08:59;1.15;;;0.80;;
38779;SDS011;29273;49.962;9.768;2023-05-07T00:11:26;1.30;;;0.88;;
38779;SDS011;29273;49.962;9.768;2023-05-07T00:13:52;1.95;;;1.17;;
38779;SDS011;29273;49.962;9.768;2023-05-07T00:16:18;1.23;;;0.80;;
38779;SDS011;29273;49.962;9.768;2023-05-07T00:18:43;1.10;;;0.98;;
38779;SDS011;29273;49.962;9.768;2023-05-07T00:21:10;0.80;;;0.80;;
38779;SDS011;29273;49.962;9.768;2023-05-07T00:23:36;1.13;;;0.90;;
38779;SDS011;29273;49.962;9.768;2023-05-07T00:26:01;1.17;;;0.85;;
38779;SDS011;29273;49.962;9.768;2023-05-07T00:28:27;1.65;;;1.00;;
38779;SDS011;29273;49.962;9.768;2023-05-07T00:30:52;0.95;;;0.85;;
38779;SDS011;29273;49.962;9.768;2023-05-07T00:33:18;1.10;;;1.00;;
38779;SDS011;29273;49.962;9.768;2023-05-07T00:35:45;1.60;;;1.20;;
38779;SDS011;29273;49.962;9.768;2023-05-07T00:38:10;1.00;;;0.90;;
38779;SDS011;29273;49.962;9.768;2023-05-07T00:40:36;1.73;;;0.88;;
38779;SDS011;29273;49.962;9.768;2023-05-07T00:43:01;1.38;;;1.02;;
38779;SDS011;29273;49.962;9.768;2023-05-07T00:45:27;1.17;;;0.93;;
38779;SDS011;29273;49.962;9.768;2023-05-07T00:47:57;1.40;;;1.10;;
38779;SDS011;29273;49.962;9.768;2023-05-07T00:50:24;0.70;;;0.70;;
38779;SDS011;29273;49.962;9.768;2023-05-07T00:52:51;0.93;;;0.90;;
38779;SDS011;29273;49.962;9.768;2023-05-07T00:55:16;0.90;;;0.90;;
38779;SDS011;29273;49.962;9.768;2023-05-07T00:57:43;1.38;;;1.00;;
38779;SDS011;29273;49.962;9.768;2023-05-07T01:00:09;1.08;;;0.95;;
38779;SDS011;29273;49.962;9.768;2023-05-07T01:02:37;1.65;;;1.00;;
38779;SDS011;29273;49.962;9.768;2023-05-07T01:05:04;0.90;;;0.80;;
38779;SDS011;29273;49.962;9.768;2023-05-07T01:07:32;1.38;;;0.90;;
38779;SDS011;29273;49.962;9.768;2023-05-07T01:09:59;0.73;;;0.73;;
38779;SDS011;29273;49.962;9.768;2023-05-07T01:12:25;1.30;;;1.00;;
38779;SDS011;29273;49.962;9.768;2023-05-07T01:14:53;2.47;;;1.05;;
38779;SDS011;29273;49.962;9.768;2023-05-07T01:17:19;2.30;;;0.88;;
38779;SDS011;29273;49.962;9.768;2023-05-07T01:19:45;2.17;;;0.90;;
38779;SDS011;29273;49.962;9.768;2023-05-07T01:22:12;1.10;;;0.88;;
38779;SDS011;29273;49.962;9.768;2023-05-07T01:24:48;1.17;;;0.80;;
38779;SDS011;29273;49.962;9.768;2023-05-07T01:27:15;1.10;;;0.80;;
38779;SDS011;29273;49.962;9.768;2023-05-07T01:29:40;0.77;;;0.70;;
38779;SDS011;29273;49.962;9.768;2023-05-07T01:32:06;0.80;;;0.80;;
38779;SDS011;29273;49.962;9.768;2023-05-07T01:34:32;1.48;;;0.82;;
38779;SDS011;29273;49.962;9.768;2023-05-07T01:37:01;0.73;;;0.73;;
38779;SDS011;29273;49.962;9.768;2023-05-07T01:39:28;0.98;;;0.80;;
38779;SDS011;29273;49.962;9.768;2023-05-07T01:41:55;0.70;;;0.70;;
38779;SDS011;29273;49.962;9.768;2023-05-07T01:44:22;1.02;;;0.80;;
38779;SDS011;29273;49.962;9.768;2023-05-07T01:46:49;1.40;;;0.90;;
38779;SDS011;29273;49.962;9.768;2023-05-07T01:49:15;1.65;;;1.00;;
38779;SDS011;29273;49.962;9.768;2023-05-07T01:51:41;1.10;;;0.80;;
38779;SDS011;29273;49.962;9.768;2023-05-07T01:54:08;0.70;;;0.63;;
38779;SDS011;29273;49.962;9.768;2023-05-07T01:56:34;0.65;;;0.65;;
38779;SDS011;29273;49.962;9.768;2023-05-07T01:59:00;0.82;;;0.82;;
38779;SDS011;29273;49.962;9.768;2023-05-07T02:01:27;1.77;;;0.95;;
38779;SDS011;29273;49.962;9.768;2023-05-07T02:03:53;1.70;;;0.90;;
38779;SDS011;29273;49.962;9.768;2023-05-07T02:06:23;1.15;;;1.00;;
38779;SDS011;29273;49.962;9.768;2023-05-07T02:08:51;0.80;;;0.80;;
38779;SDS011;29273;49.962;9.768;2023-05-07T02:11:16;1.13;;;0.82;;
38779;SDS011;29273;49.962;9.768;2023-05-07T02:13:42;0.70;;;0.70;;
38779;SDS011;29273;49.962;9.768;2023-05-07T02:16:08;0.88;;;0.85;;
38779;SDS011;29273;49.962;9.768;2023-05-07T02:18:33;1.10;;;0.90;;
38779;SDS011;29273;49.962;9.768;2023-05-07T02:20:59;1.20;;;1.10;;
38779;SDS011;29273;49.962;9.768;2023-05-07T02:23:24;2.65;;;1.40;;
38779;SDS011;29273;49.962;9.768;2023-05-07T02:25:50;1.23;;;0.90;;
38779;SDS011;29273;49.962;9.768;2023-05-07T02:28:16;0.93;;;0.93;;
38779;SDS011;29273;49.962;9.768;2023-05-07T02:30:48;0.88;;;0.85;;
38779;SDS011;29273;49.962;9.768;2023-05-07T02:33:14;1.10;;;0.90;;
38779;SDS011;29273;49.962;9.768;2023-05-07T02:35:40;1.08;;;1.00;;
38779;SDS011;29273;49.962;9.768;2023-05-07T02:38:06;1.65;;;1.10;;
38779;SDS011;29273;49.962;9.768;2023-05-07T02:40:32;1.17;;;1.08;;
38779;SDS011;29273;49.962;9.768;2023-05-07T02:43:04;1.10;;;1.00;;
38779;SDS011;29273;49.962;9.768;2023-05-07T02:45:29;1.17;;;1.05;;
38779;SDS011;29273;49.962;9.768;2023-05-07T02:47:55;1.48;;;1.25;;
38779;SDS011;29273;49.962;9.768;2023-05-07T02:50:21;1.20;;;1.10;;
38779;SDS011;29273;49.962;9.768;2023-05-07T02:52:46;1.33;;;1.10;;
38779;SDS011;29273;49.962;9.768;2023-05-07T02:55:13;1.20;;;1.10;;
38779;SDS011;29273;49.962;9.768;2023-05-07T02:57:39;1.10;;;1.00;;
38779;SDS011;29273;49.962;9.768;2023-05-07T03:00:15;1.30;;;1.20;;
38779;SDS011;29273;49.962;9.768;2023-05-07T03:02:50;1.30;;;1.20;;
38779;SDS011;29273;49.962;9.768;2023-05-07T03:05:16;1.30;;;1.20;;
38779;SDS011;29273;49.962;9.768;2023-05-07T03:07:42;2.13;;;1.20;;
38779;SDS011;29273;49.962;9.768;2023-05-07T03:10:11;1.45;;;1.10;;
38779;SDS011;29273;49.962;9.768;2023-05-07T03:12:36;1.50;;;1.20;;
38779;SDS011;29273;49.962;9.768;2023-05-07T03:15:03;1.48;;;1.10;;
38779;SDS011;29273;49.962;9.768;2023-05-07T03:17:30;1.33;;;1.23;;
38779;SDS011;29273;49.962;9.768;2023-05-07T03:19:55;1.35;;;1.25;;
38779;SDS011;29273;49.962;9.768;2023-05-07T03:22:21;1.38;;;1.27;;
38779;SDS011;29273;49.962;9.768;2023-05-07T03:24:46;2.00;;;1.45;;
38779;SDS011;29273;49.962;9.768;2023-05-07T03:27:12;1.23;;;1.13;;
38779;SDS011;29273;49.962;9.768;2023-05-07T03:29:37;1.38;;;1.27;;
38779;SDS011;29273;49.962;9.768;2023-05-07T03:32:03;1.20;;;1.10;;
38779;SDS011;29273;49.962;9.768;2023-05-07T03:34:29;1.40;;;1.30;;
38779;SDS011;29273;49.962;9.768;2023-05-07T03:36:54;1.42;;;1.33;;
38779;SDS011;29273;49.962;9.768;2023-05-07T03:39:22;1.20;;;1.10;;
38779;SDS011;29273;49.962;9.768;2023-05-07T03:41:48;1.30;;;1.20;;
38779;SDS011;29273;49.962;9.768;2023-05-07T03:44:13;1.65;;;1.10;;
38779;SDS011;29273;49.962;9.768;2023-05-07T03:46:39;1.35;;;1.25;;
38779;SDS011;29273;49.962;9.768;2023-05-07T03:49:08;1.10;;;1.00;;
38779;SDS011;29273;49.962;9.768;2023-05-07T03:51:33;1.10;;;1.00;;
38779;SDS011;29273;49.962;9.768;2023-05-07T03:54:02;1.90;;;1.25;;
38779;SDS011;29273;49.962;9.768;2023-05-07T03:56:29;1.42;;;1.30;;
38779;SDS011;29273;49.962;9.768;2023-05-07T03:58:57;1.30;;;1.20;;
38779;SDS011;29273;49.962;9.768;2023-05-07T04:01:22;1.50;;;1.40;;
38779;SDS011;29273;49.962;9.768;2023-05-07T04:03:48;1.40;;;1.30;;
38779;SDS011;29273;49.962;9.768;2023-05-07T04:06:15;1.92;;;1.50;;
38779;SDS011;29273;49.962;9.768;2023-05-07T04:08:43;1.35;;;1.23;;
38779;SDS011;29273;49.962;9.768;2023-05-07T04:11:09;1.48;;;1.38;;
38779;SDS011;29273;49.962;9.768;2023-05-07T04:13:36;1.50;;;1.40;;
38779;SDS011;29273;49.962;9.768;2023-05-07T04:16:04;1.33;;;1.23;;
38779;SDS011;29273;49.962;9.768;2023-05-07T04:18:31;1.70;;;1.60;;
38779;SDS011;29273;49.962;9.768;2023-05-07T04:20:56;1.75;;;1.65;;
38779;SDS011;29273;49.962;9.768;2023-05-07T04:23:22;1.73;;;1.63;;
38779;SDS011;29273;49.962;9.768;2023-05-07T04:25:48;1.52;;;1.42;;
38779;SDS011;29273;49.962;9.768;2023-05-07T04:28:21;1.80;;;1.70;;
38779;SDS011;29273;49.962;9.768;2023-05-07T04:30:47;1.75;;;1.65;;
38779;SDS011;29273;49.962;9.768;2023-05-07T04:33:14;1.48;;;1.38;;
38779;SDS011;29273;49.962;9.768;2023-05-07T04:35:42;1.52;;;1.42;;
38779;SDS011;29273;49.962;9.768;2023-05-07T04:38:08;1.65;;;1.55;;
38779;SDS011;29273;49.962;9.768;2023-05-07T04:40:35;1.88;;;1.67;;
38779;SDS011;29273;49.962;9.768;2023-05-07T04:43:01;1.90;;;1.80;;
38779;SDS011;29273;49.962;9.768;2023-05-07T04:45:30;2.00;;;1.80;;
38779;SDS011;29273;49.962;9.768;2023-05-07T04:47:55;2.00;;;1.77;;
38779;SDS011;29273;49.962;9.768;2023-05-07T04:50:21;1.92;;;1.83;;
38779;SDS011;29273;49.962;9.768;2023-05-07T04:52:49;2.60;;;2.20;;
38779;SDS011;29273;49.962;9.768;2023-05-07T04:55:15;2.30;;;2.10;;
38779;SDS011;29273;49.962;9.768;2023-05-07T04:57:41;2.50;;;2.20;;
38779;SDS011;29273;49.962;9.768;2023-05-07T05:00:09;2.30;;;2.10;;
38779;SDS011;29273;49.962;9.768;2023-05-07T05:02:36;2.30;;;2.10;;
38779;SDS011;29273;49.962;9.768;2023-05-07T05:05:02;2.40;;;2.20;;
38779;SDS011;29273;49.962;9.768;2023-05-07T05:07:29;3.35;;;2.40;;
38779;SDS011;29273;49.962;9.768;2023-05-07T05:09:54;2.47;;;2.28;;
38779;SDS011;29273;49.962;9.768;2023-05-07T05:12:21;2.35;;;2.15;;
38779;SDS011;29273;49.962;9.768;2023-05-07T05:14:46;2.70;;;2.50;;
38779;SDS011;29273;49.962;9.768;2023-05-07T05:17:13;2.60;;;2.40;;
38779;SDS011;29273;49.962;9.768;2023-05-07T05:19:38;2.67;;;2.47;;
38779;SDS011;29273;49.962;9.768;2023-05-07T05:22:04;2.92;;;2.60;;
38779;SDS011;29273;49.962;9.768;2023-05-07T05:24:30;2.40;;;2.20;;
38779;SDS011;29273;49.962;9.768;2023-05-07T05:26:56;2.55;;;2.35;;
38779;SDS011;29273;49.962;9.768;2023-05-07T05:29:22;2.90;;;2.70;;
38779;SDS011;29273;49.962;9.768;2023-05-07T05:31:48;2.63;;;2.42;;
38779;SDS011;29273;49.962;9.768;2023-05-07T05:34:13;2.70;;;2.50;;
38779;SDS011;29273;49.962;9.768;2023-05-07T05:36:40;3.15;;;2.72;;
38779;SDS011;29273;49.962;9.768;2023-05-07T05:39:06;2.72;;;2.47;;
38779;SDS011;29273;49.962;9.768;2023-05-07T05:41:31;2.60;;;2.40;;
38779;SDS011;29273;49.962;9.768;2023-05-07T05:43:57;2.83;;;2.47;;
38779;SDS011;29273;49.962;9.768;2023-05-07T05:46:23;3.40;;;2.80;;
38779;SDS011;29273;49.962;9.768;2023-05-07T05:48:50;3.47;;;2.92;;
38779;SDS011;29273;49.962;9.768;2023-05-07T05:51:15;2.95;;;2.65;;
38779;SDS011;29273;49.962;9.768;2023-05-07T05:53:41;3.00;;;2.75;;
38779;SDS011;29273;49.962;9.768;2023-05-07T05:56:07;3.10;;;2.80;;
38779;SDS011;29273;49.962;9.768;2023-05-07T05:58:33;3.00;;;2.67;;
38779;SDS011;29273;49.962;9.768;2023-05-07T06:01:03;3.00;;;2.70;;
38779;SDS011;29273;49.962;9.768;2023-05-07T06:03:29;2.70;;;2.50;;
38779;SDS011;29273;49.962;9.768;2023-05-07T06:05:57;3.03;;;2.70;;
38779;SDS011;29273;49.962;9.768;2023-05-07T06:08:23;3.10;;;2.80;;
38779;SDS011;29273;49.962;9.768;2023-05-07T06:10:49;2.85;;;2.65;;
38779;SDS011;29273;49.962;9.768;2023-05-07T06:13:15;2.95;;;2.65;;
38779;SDS011;29273;49.962;9.768;2023-05-07T06:15:41;2.83;;;2.63;;
38779;SDS011;29273;49.962;9.768;2023-05-07T06:18:09;2.95;;;2.72;;
38779;SDS011;29273;49.962;9.768;2023-05-07T06:20:35;2.70;;;2.50;;
38779;SDS011;29273;49.962;9.768;2023-05-07T06:23:03;2.72;;;2.53;;
38779;SDS011;29273;49.962;9.768;2023-05-07T06:25:31;3.25;;;2.95;;
38779;SDS011;29273;49.962;9.768;2023-05-07T06:27:57;2.95;;;2.65;;
38779;SDS011;29273;49.962;9.768;2023-05-07T06:30:24;2.88;;;2.63;;
38779;SDS011;29273;49.962;9.768;2023-05-07T06:32:50;2.85;;;2.65;;
38779;SDS011;29273;49.962;9.768;2023-05-07T06:35:15;3.03;;;2.70;;
38779;SDS011;29273;49.962;9.768;2023-05-07T06:37:41;2.80;;;2.60;;
38779;SDS011;29273;49.962;9.768;2023-05-07T06:40:15;3.10;;;2.80;;
38779;SDS011;29273;49.962;9.768;2023-05-07T06:42:42;3.00;;;2.70;;
38779;SDS011;29273;49.962;9.768;2023-05-07T06:45:26;3.08;;;2.78;;
38779;SDS011;29273;49.962;9.768;2023-05-07T06:47:54;2.95;;;2.70;;
38779;SDS011;29273;49.962;9.768;2023-05-07T06:50:20;2.75;;;2.50;;
38779;SDS011;29273;49.962;9.768;2023-05-07T06:52:47;2.90;;;2.65;;
38779;SDS011;29273;49.962;9.768;2023-05-07T06:55:12;3.28;;;2.97;;
38779;SDS011;29273;49.962;9.768;2023-05-07T06:57:38;3.30;;;3.00;;
38779;SDS011;29273;49.962;9.768;2023-05-07T07:00:04;2.97;;;2.78;;
38779;SDS011;29273;49.962;9.768;2023-05-07T07:02:39;3.17;;;2.88;;
38779;SDS011;29273;49.962;9.768;2023-05-07T07:05:05;2.83;;;2.63;;
38779;SDS011;29273;49.962;9.768;2023-05-07T07:07:31;3.58;;;3.28;;
38779;SDS011;29273;49.962;9.768;2023-05-07T07:09:56;3.70;;;3.13;;
38779;SDS011;29273;49.962;9.768;2023-05-07T07:12:22;3.22;;;2.92;;
38779;SDS011;29273;49.962;9.768;2023-05-07T07:14:49;3.83;;;3.33;;
38779;SDS011;29273;49.962;9.768;2023-05-07T07:17:15;3.25;;;2.95;;
38779;SDS011;29273;49.962;9.768;2023-05-07T07:19:40;3.70;;;3.40;;
38779;SDS011;29273;49.962;9.768;2023-05-07T07:22:07;4.88;;;3.60;;
38779;SDS011;29273;49.962;9.768;2023-05-07T07:24:32;3.03;;;2.72;;
38779;SDS011;29273;49.962;9.768;2023-05-07T07:27:01;3.20;;;2.88;;
38779;SDS011;29273;49.962;9.768;2023-05-07T07:29:27;3.05;;;2.72;;
38779;SDS011;29273;49.962;9.768;2023-05-07T07:31:53;3.03;;;2.72;;
38779;SDS011;29273;49.962;9.768;2023-05-07T07:34:20;3.50;;;3.00;;
38779;SDS011;29273;49.962;9.768;2023-05-07T07:36:45;3.08;;;2.78;;
38779;SDS011;29273;49.962;9.768;2023-05-07T07:39:14;2.85;;;2.55;;
38779;SDS011;29273;49.962;9.768;2023-05-07T07:41:40;3.17;;;2.88;;
38779;SDS011;29273;49.962;9.768;2023-05-07T07:44:06;3.30;;;3.00;;
38779;SDS011;29273;49.962;9.768;2023-05-07T07:46:34;3.15;;;2.85;;
38779;SDS011;29273;49.962;9.768;2023-05-07T07:49:00;3.88;;;2.88;;
38779;SDS011;29273;49.962;9.768;2023-05-07T07:51:25;3.17;;;2.75;;
38779;SDS011;29273;49.962;9.768;2023-05-07T07:53:51;2.75;;;2.55;;
38779;SDS011;29273;49.962;9.768;2023-05-07T07:56:17;3.10;;;2.80;;
38779;SDS011;29273;49.962;9.768;2023-05-07T07:58:43;3.58;;;2.70;;
38779;SDS011;29273;49.962;9.768;2023-05-07T08:01:08;2.55;;;2.35;;
38779;SDS011;29273;49.962;9.768;2023-05-07T08:03:34;3.13;;;2.83;;
38779;SDS011;29273;49.962;9.768;2023-05-07T08:06:01;3.20;;;2.92;;
38779;SDS011;29273;49.962;9.768;2023-05-07T08:08:26;2.97;;;2.67;;
38779;SDS011;29273;49.962;9.768;2023-05-07T08:10:53;2.88;;;2.67;;
38779;SDS011;29273;49.962;9.768;2023-05-07T08:13:26;3.28;;;2.70;;
38779;SDS011;29273;49.962;9.768;2023-05-07T08:15:51;3.00;;;2.67;;
38779;SDS011;29273;49.962;9.768;2023-05-07T08:18:17;3.20;;;2.90;;
38779;SDS011;29273;49.962;9.768;2023-05-07T08:20:44;3.15;;;2.85;;
38779;SDS011;29273;49.962;9.768;2023-05-07T08:23:15;2.88;;;2.60;;
38779;SDS011;29273;49.962;9.768;2023-05-07T08:25:42;2.75;;;2.55;;
38779;SDS011;29273;49.962;9.768;2023-05-07T08:28:08;3.30;;;2.67;;
38779;SDS011;29273;49.962;9.768;2023-05-07T08:30:34;2.83;;;2.55;;
38779;SDS011;29273;49.962;9.768;2023-05-07T08:33:00;2.95;;;2.60;;
38779;SDS011;29273;49.962;9.768;2023-05-07T08:35:25;2.60;;;2.40;;
38779;SDS011;29273;49.962;9.768;2023-05-07T08:37:52;2.85;;;2.55;;
38779;SDS011;29273;49.962;9.768;2023-05-07T08:40:18;2.72;;;2.40;;
38779;SDS011;29273;49.962;9.768;2023-05-07T08:42:44;2.50;;;2.30;;
38779;SDS011;29273;49.962;9.768;2023-05-07T08:45:14;2.67;;;2.47;;
38779;SDS011;29273;49.962;9.768;2023-05-07T08:47:44;2.83;;;2.63;;
38779;SDS011;29273;49.962;9.768;2023-05-07T08:50:22;2.67;;;2.47;;
38779;SDS011;29273;49.962;9.768;2023-05-07T08:52:49;3.08;;;2.72;;
38779;SDS011;29273;49.962;9.768;2023-05-07T08:55:18;3.15;;;2.60;;
38779;SDS011;29273;49.962;9.768;2023-05-07T08:57:44;2.70;;;2.50;;
38779;SDS011;29273;49.962;9.768;2023-05-07T09:00:11;2.90;;;2.42;;
38779;SDS011;29273;49.962;9.768;2023-05-07T09:02:39;3.20;;;2.45;;
38779;SDS011;29273;49.962;9.768;2023-05-07T09:05:06;2.47;;;2.28;;
38779;SDS011;29273;49.962;9.768;2023-05-07T09:07:33;2.47;;;2.28;;
38779;SDS011;29273;49.962;9.768;2023-05-07T09:10:05;2.85;;;2.65;;
38779;SDS011;29273;49.962;9.768;2023-05-07T09:12:33;2.38;;;2.17;;
38779;SDS011;29273;49.962;9.768;2023-05-07T09:15:01;2.80;;;2.40;;
38779;SDS011;29273;49.962;9.768;2023-05-07T09:17:30;2.58;;;2.38;;
38779;SDS011;29273;49.962;9.768;2023-05-07T09:19:55;2.90;;;2.60;;
38779;SDS011;29273;49.962;9.768;2023-05-07T09:22:21;2.78;;;2.58;;
38779;SDS011;29273;49.962;9.768;2023-05-07T09:24:55;2.47;;;2.28;;
38779;SDS011;29273;49.962;9.768;2023-05-07T09:27:24;2.38;;;2.17;;
38779;SDS011;29273;49.962;9.768;2023-05-07T09:29:51;3.10;;;2.88;;
38779;SDS011;29273;49.962;9.768;2023-05-07T09:32:17;2.55;;;2.28;;
38779;SDS011;29273;49.962;9.768;2023-05-07T09:34:42;2.83;;;2.53;;
38779;SDS011;29273;49.962;9.768;2023-05-07T09:37:10;2.60;;;2.40;;
38779;SDS011;29273;49.962;9.768;2023-05-07T09:39:44;2.28;;;2.08;;
38779;SDS011;29273;49.962;9.768;2023-05-07T09:42:13;2.60;;;2.35;;
38779;SDS011;29273;49.962;9.768;2023-05-07T09:44:40;3.15;;;2.53;;
38779;SDS011;29273;49.962;9.768;2023-05-07T09:47:12;2.80;;;2.60;;
38779;SDS011;29273;49.962;9.768;2023-05-07T09:49:45;2.67;;;2.45;;
38779;SDS011;29273;49.962;9.768;2023-05-07T09:52:14;2.58;;;2.35;;
38779;SDS011;29273;49.962;9.768;2023-05-07T09:54:45;3.08;;;2.75;;
38779;SDS011;29273;49.962;9.768;2023-05-07T09:57:14;2.67;;;2.40;;
38779;SDS011;29273;49.962;9.768;2023-05-07T09:59:43;2.78;;;2.58;;
38779;SDS011;29273;49.962;9.768;2023-05-07T10:02:12;3.08;;;2.55;;
38779;SDS011;29273;49.962;9.768;2023-05-07T10:04:46;2.80;;;2.20;;
38779;SDS011;29273;49.962;9.768;2023-05-07T10:07:14;3.92;;;2.25;;
38779;SDS011;29273;49.962;9.768;2023-05-07T10:09:41;2.50;;;2.30;;
38779;SDS011;29273;49.962;9.768;2023-05-07T10:12:16;2.83;;;2.63;;
38779;SDS011;29273;49.962;9.768;2023-05-07T10:14:43;2.30;;;2.10;;
38779;SDS011;29273;49.962;9.768;2023-05-07T10:17:11;2.60;;;2.40;;
38779;SDS011;29273;49.962;9.768;2023-05-07T10:19:38;3.22;;;2.05;;
38779;SDS011;29273;49.962;9.768;2023-05-07T10:22:05;2.58;;;2.30;;
38779;SDS011;29273;49.962;9.768;2023-05-07T10:24:34;2.28;;;2.10;;
38779;SDS011;29273;49.962;9.768;2023-05-07T10:27:04;2.20;;;2.00;;
38779;SDS011;29273;49.962;9.768;2023-05-07T10:32:38;2.28;;;2.10;;
38779;SDS011;29273;49.962;9.768;2023-05-07T10:35:16;2.63;;;2.30;;
38779;SDS011;29273;49.962;9.768;2023-05-07T10:37:45;2.13;;;1.92;;
38779;SDS011;29273;49.962;9.768;2023-05-07T10:40:11;2.20;;;2.00;;
38779;SDS011;29273;49.962;9.768;2023-05-07T10:42:37;2.50;;;2.10;;
38779;SDS011;29273;49.962;9.768;2023-05-07T10:45:13;2.33;;;2.10;;
38779;SDS011;29273;49.962;9.768;2023-05-07T10:50:37;2.35;;;2.15;;
38779;SDS011;29273;49.962;9.768;2023-05-07T10:55:49;2.67;;;2.15;;
38779;SDS011;29273;49.962;9.768;2023-05-07T10:58:42;2.08;;;1.88;;
38779;SDS011;29273;49.962;9.768;2023-05-07T11:04:21;1.90;;;1.80;;
38779;SDS011;29273;49.962;9.768;2023-05-07T11:12:17;3.10;;;2.30;;
38779;SDS011;29273;49.962;9.768;2023-05-07T11:15:10;2.20;;;2.00;;
38779;SDS011;29273;49.962;9.768;2023-05-07T11:17:54;2.45;;;2.22;;
38779;SDS011;29273;49.962;9.768;2023-05-07T11:26:18;2.20;;;1.98;;
38779;SDS011;29273;49.962;9.768;2023-05-07T11:28:45;2.03;;;1.83;;
38779;SDS011;29273;49.962;9.768;2023-05-07T11:31:11;2.10;;;1.90;;
38779;SDS011;29273;49.962;9.768;2023-05-07T11:33:38;1.77;;;1.67;;
38779;SDS011;29273;49.962;9.768;2023-05-07T11:36:07;1.80;;;1.70;;
38779;SDS011;29273;49.962;9.768;2023-05-07T11:38:38;2.00;;;1.80;;
38779;SDS011;29273;49.962;9.768;2023-05-07T11:41:03;2.25;;;2.05;;
38779;SDS011;29273;49.962;9.768;2023-05-07T11:43:30;1.80;;;1.70;;
38779;SDS011;29273;49.962;9.768;2023-05-07T11:46:09;2.30;;;1.95;;
38779;SDS011;29273;49.962;9.768;2023-05-07T11:48:36;1.60;;;1.50;;
38779;SDS011;29273;49.962;9.768;2023-05-07T11:51:05;2.00;;;1.80;;
38779;SDS011;29273;49.962;9.768;2023-05-07T11:53:37;1.75;;;1.65;;
38779;SDS011;29273;49.962;9.768;2023-05-07T11:56:11;1.92;;;1.73;;
38779;SDS011;29273;49.962;9.768;2023-05-07T11:58:38;1.83;;;1.73;;
38779;SDS011;29273;49.962;9.768;2023-05-07T12:01:06;1.88;;;1.70;;
38779;SDS011;29273;49.962;9.768;2023-05-07T12:03:33;1.63;;;1.52;;
38779;SDS011;29273;49.962;9.768;2023-05-07T12:05:59;1.50;;;1.40;;
38779;SDS011;29273;49.962;9.768;2023-05-07T12:08:25;1.83;;;1.60;;
38779;SDS011;29273;49.962;9.768;2023-05-07T12:10:50;2.17;;;1.98;;
38779;SDS011;29273;49.962;9.768;2023-05-07T12:13:17;1.63;;;1.52;;
38779;SDS011;29273;49.962;9.768;2023-05-07T12:15:43;1.70;;;1.60;;
38779;SDS011;29273;49.962;9.768;2023-05-07T12:18:10;1.92;;;1.52;;
38779;SDS011;29273;49.962;9.768;2023-05-07T12:20:37;1.98;;;1.70;;
38779;SDS011;29273;49.962;9.768;2023-05-07T12:23:02;1.80;;;1.70;;
38779;SDS011;29273;49.962;9.768;2023-05-07T12:25:32;1.70;;;1.60;;
38779;SDS011;29273;49.962;9.768;2023-05-07T12:28:00;1.80;;;1.63;;
38779;SDS011;29273;49.962;9.768;2023-05-07T12:30:26;2.00;;;1.60;;
38779;SDS011;29273;49.962;9.768;2023-05-07T12:32:54;1.73;;;1.50;;
38779;SDS011;29273;49.962;9.768;2023-05-07T12:35:29;1.85;;;1.75;;
38779;SDS011;29273;49.962;9.768;2023-05-07T12:37:56;1.73;;;1.63;;
38779;SDS011;29273;49.962;9.768;2023-05-07T12:40:24;1.70;;;1.60;;
38779;SDS011;29273;49.962;9.768;2023-05-07T12:43:00;1.60;;;1.50;;
38779;SDS011;29273;49.962;9.768;2023-05-07T12:45:25;1.67;;;1.58;;
38779;SDS011;29273;49.962;9.768;2023-05-07T12:47:51;1.65;;;1.55;;
38779;SDS011;29273;49.962;9.768;2023-05-07T12:50:17;1.70;;;1.60;;
38779;SDS011;29273;49.962;9.768;2023-05-07T12:52:43;1.73;;;1.45;;
38779;SDS011;29273;49.962;9.768;2023-05-07T12:55:11;1.88;;;1.55;;
38779;SDS011;29273;49.962;9.768;2023-05-07T12:57:43;1.90;;;1.58;;
38779;SDS011;29273;49.962;9.768;2023-05-07T13:00:32;1.70;;;1.60;;
38779;SDS011;29273;49.962;9.768;2023-05-07T13:02:58;1.83;;;1.42;;
38779;SDS011;29273;49.962;9.768;2023-05-07T13:05:24;1.52;;;1.40;;
38779;SDS011;29273;49.962;9.768;2023-05-07T13:07:53;1.83;;;1.48;;
38779;SDS011;29273;49.962;9.768;2023-05-07T13:10:19;1.65;;;1.55;;
38779;SDS011;29273;49.962;9.768;2023-05-07T13:12:44;1.80;;;1.50;;
38779;SDS011;29273;49.962;9.768;2023-05-07T13:15:10;1.50;;;1.30;;
38779;SDS011;29273;49.962;9.768;2023-05-07T13:17:35;1.70;;;1.52;;
38779;SDS011;29273;49.962;9.768;2023-05-07T13:20:01;1.60;;;1.50;;
38779;SDS011;29273;49.962;9.768;2023-05-07T13:22:26;1.50;;;1.40;;
38779;SDS011;29273;49.962;9.768;2023-05-07T13:24:52;1.50;;;1.40;;
38779;SDS011;29273;49.962;9.768;2023-05-07T13:27:17;1.42;;;1.33;;
38779;SDS011;29273;49.962;9.768;2023-05-07T13:29:44;1.50;;;1.40;;
38779;SDS011;29273;49.962;9.768;2023-05-07T13:32:09;1.70;;;1.50;;
38779;SDS011;29273;49.962;9.768;2023-05-07T13:34:35;2.13;;;1.60;;
38779;SDS011;29273;49.962;9.768;2023-05-07T13:37:00;1.52;;;1.42;;
38779;SDS011;29273;49.962;9.768;2023-05-07T13:39:26;1.70;;;1.50;;
38779;SDS011;29273;49.962;9.768;2023-05-07T13:41:51;1.38;;;1.27;;
38779;SDS011;29273;49.962;9.768;2023-05-07T13:44:17;1.33;;;1.23;;
38779;SDS011;29273;49.962;9.768;2023-05-07T13:46:42;1.40;;;1.30;;
38779;SDS011;29273;49.962;9.768;2023-05-07T13:49:08;1.52;;;1.42;;
38779;SDS011;29273;49.962;9.768;2023-05-07T13:51:33;1.70;;;1.40;;
38779;SDS011;29273;49.962;9.768;2023-05-07T13:53:58;1.50;;;1.40;;
38779;SDS011;29273;49.962;9.768;2023-05-07T13:56:24;1.45;;;1.35;;
38779;SDS011;29273;49.962;9.768;2023-05-07T13:58:50;1.45;;;1.35;;
38779;SDS011;29273;49.962;9.768;2023-05-07T14:01:15;1.50;;;1.40;;
38779;SDS011;29273;49.962;9.768;2023-05-07T14:03:41;1.30;;;1.20;;
38779;SDS011;29273;49.962;9.768;2023-05-07T14:06:06;1.80;;;1.40;;
38779;SDS011;29273;49.962;9.768;2023-05-07T14:08:31;1.60;;;1.20;;
38779;SDS011;29273;49.962;9.768;2023-05-07T14:10:57;1.50;;;1.40;;
38779;SDS011;29273;49.962;9.768;2023-05-07T14:13:22;1.40;;;1.30;;
38779;SDS011;29273;49.962;9.768;2023-05-07T14:15:48;1.25;;;1.10;;
38779;SDS011;29273;49.962;9.768;2023-05-07T14:18:14;1.30;;;1.20;;
38779;SDS011;29273;49.962;9.768;2023-05-07T14:20:40;1.42;;;1.13;;
38779;SDS011;29273;49.962;9.768;2023-05-07T14:23:06;1.98;;;1.05;;
38779;SDS011;29273;49.962;9.768;2023-05-07T14:25:31;1.50;;;1.40;;
38779;SDS011;29273;49.962;9.768;2023-05-07T14:27:57;1.30;;;1.20;;
38779;SDS011;29273;49.962;9.768;2023-05-07T14:30:22;1.30;;;1.20;;
38779;SDS011;29273;49.962;9.768;2023-05-07T14:32:49;2.63;;;1.30;;
38779;SDS011;29273;49.962;9.768;2023-05-07T14:35:15;1.45;;;1.10;;
38779;SDS011;29273;49.962;9.768;2023-05-07T14:37:40;1.10;;;1.00;;
38779;SDS011;29273;49.962;9.768;2023-05-07T14:40:06;1.30;;;1.20;;
38779;SDS011;29273;49.962;9.768;2023-05-07T14:42:32;1.23;;;1.13;;
38779;SDS011;29273;49.962;9.768;2023-05-07T14:44:57;1.08;;;0.98;;
38779;SDS011;29273;49.962;9.768;2023-05-07T14:47:23;1.20;;;1.10;;
38779;SDS011;29273;49.962;9.768;2023-05-07T14:49:48;0.88;;;0.88;;
38779;SDS011;29273;49.962;9.768;2023-05-07T14:52:13;1.67;;;1.10;;
38779;SDS011;29273;49.962;9.768;2023-05-07T14:54:39;1.60;;;1.50;;
38779;SDS011;29273;49.962;9.768;2023-05-07T14:57:05;0.95;;;0.90;;
38779;SDS011;29273;49.962;9.768;2023-05-07T14:59:31;1.40;;;1.30;;
38779;SDS011;29273;49.962;9.768;2023-05-07T15:01:57;1.17;;;1.08;;
38779;SDS011;29273;49.962;9.768;2023-05-07T15:04:23;1.27;;;1.15;;
38779;SDS011;29273;49.962;9.768;2023-05-07T15:06:49;1.23;;;1.13;;
38779;SDS011;29273;49.962;9.768;2023-05-07T15:09:14;1.27;;;1.17;;
38779;SDS011;29273;49.962;9.768;2023-05-07T15:11:40;1.30;;;1.20;;